Time;durP1;ratioP1;P1;durP2;ratioP2;P2;SDS_P1;SDS_P2;PMS_P1;PMS_P2;Temp;Humidity;BMP_temperature;BMP_pressure;BME280_temperature;BME280_humidity;BME280_pressure;Samples;Min_cycle;Max_cycle;Signal;HPM_P1;HPM_P2
2021/11/26 00:00:13;;;;;;;1.88;0.38;;;19.20;47.60;;;;;;5085291;28;20053;-62
2021/11/26 00:02:41;;;;;;;8.57;0.95;;;19.20;47.60;;;;;;5087881;28;20066;-63
2021/11/26 00:05:09;;;;;;;3.90;0.50;;;19.20;48.20;;;;;;5081947;28;20534;-62
2021/11/26 00:07:36;;;;;;;4.20;0.60;;;19.10;47.50;;;;;;5084596;28;20044;-62
2021/11/26 00:10:04;;;;;;;4.63;1.08;;;19.10;47.50;;;;;;5090943;28;20047;-61
2021/11/26 00:12:32;;;;;;;3.22;0.28;;;19.10;47.50;;;;;;5096057;28;20040;-62
2021/11/26 00:15:14;;;;;;;3.90;0.32;;;19.10;47.50;;;;;;5090630;28;20495;-62
2021/11/26 00:17:50;;;;;;;2.67;0.38;;;19.10;47.50;;;;;;5089624;28;20147;-62
2021/11/26 00:20:17;;;;;;;1.03;0.37;;;19.10;47.50;;;;;;5093336;28;20067;-62
2021/11/26 00:22:44;;;;;;;0.77;0.35;;;19.10;47.50;;;;;;5098033;28;20466;-62
2021/11/26 00:25:12;;;;;;;0.85;0.20;;;19.00;47.40;;;;;;5088617;28;20521;-63
2021/11/26 00:27:39;;;;;;;1.35;0.30;;;19.10;47.50;;;;;;5082695;28;20048;-62
2021/11/26 00:30:07;;;;;;;2.03;0.30;;;19.00;47.50;;;;;;5092693;28;20032;-63
2021/11/26 00:32:35;;;;;;;1.30;0.20;;;19.00;47.50;;;;;;5079049;28;20043;-62
2021/11/26 00:35:04;;;;;;;0.93;0.30;;;19.00;47.50;;;;;;5086928;28;20040;-63
2021/11/26 00:37:31;;;;;;;5.32;0.82;;;19.00;48.10;;;;;;5083081;28;20036;-63
2021/11/26 00:39:58;;;;;;;0.75;0.25;;;19.00;47.60;;;;;;5101324;28;20044;-62
2021/11/26 00:42:25;;;;;;;1.17;0.20;;;19.00;47.60;;;;;;5085975;28;20038;-63
2021/11/26 00:44:52;;;;;;;1.45;0.20;;;19.00;47.60;;;;;;5083787;28;20037;-62
2021/11/26 00:47:20;;;;;;;1.85;0.30;;;18.90;47.50;;;;;;5081476;28;20055;-62
2021/11/26 00:49:48;;;;;;;0.75;0.30;;;19.00;47.60;;;;;;5061795;28;20039;-63
2021/11/26 00:52:16;;;;;;;4.07;0.70;;;18.90;47.60;;;;;;5068227;28;20054;-62
2021/11/26 00:54:43;;;;;;;1.08;0.10;;;18.90;47.60;;;;;;5090605;28;20044;-63
2021/11/26 00:57:10;;;;;;;5.35;0.40;;;18.90;47.70;;;;;;5088478;28;20035;-63
2021/11/26 00:59:38;;;;;;;2.00;0.20;;;18.90;47.70;;;;;;5079879;28;20475;-63
2021/11/26 01:02:06;;;;;;;0.95;0.10;;;18.90;47.60;;;;;;5081646;28;20044;-64
2021/11/26 01:04:34;;;;;;;2.63;0.20;;;18.90;47.60;;;;;;5082534;28;20048;-65
2021/11/26 01:07:01;;;;;;;4.63;0.22;;;18.90;47.80;;;;;;5101374;28;20071;-65
2021/11/26 01:09:29;;;;;;;2.05;0.22;;;18.90;47.80;;;;;;5088796;28;20054;-65
2021/11/26 01:11:56;;;;;;;4.13;0.35;;;18.90;47.80;;;;;;5084168;28;20149;-66
2021/11/26 01:14:24;;;;;;;2.10;0.20;;;18.80;47.80;;;;;;5072262;28;20736;-65
2021/11/26 01:16:52;;;;;;;0.90;0.40;;;18.80;47.80;;;;;;5093971;28;20051;-65
2021/11/26 01:19:19;;;;;;;3.80;0.40;;;18.80;47.80;;;;;;5081943;28;20076;-64
2021/11/26 01:21:47;;;;;;;3.20;0.40;;;18.80;47.70;;;;;;5086983;28;20043;-64
2021/11/26 01:24:14;;;;;;;1.25;0.50;;;18.80;47.70;;;;;;5090845;28;20609;-64
2021/11/26 01:26:42;;;;;;;1.27;0.25;;;18.80;47.60;;;;;;5093521;28;20513;-65
2021/11/26 01:29:09;;;;;;;1.75;0.28;;;18.80;47.60;;;;;;5088630;28;20047;-65
2021/11/26 01:31:37;;;;;;;2.42;0.17;;;18.80;47.60;;;;;;5066253;28;20507;-66
2021/11/26 01:34:07;;;;;;;1.05;0.20;;;18.80;47.60;;;;;;5101214;28;20063;-65
2021/11/26 01:36:34;;;;;;;1.08;0.60;;;18.80;47.60;;;;;;5086024;28;20114;-65
2021/11/26 01:39:02;;;;;;;1.77;0.20;;;18.80;47.70;;;;;;5095362;28;20032;-64
2021/11/26 01:41:30;;;;;;;4.47;0.20;;;18.80;47.70;;;;;;5094645;28;20118;-64
2021/11/26 01:43:58;;;;;;;0.85;0.10;;;18.80;47.70;;;;;;5086480;28;20031;-66
2021/11/26 01:46:26;;;;;;;2.92;0.43;;;18.80;47.70;;;;;;5089399;28;20163;-65
2021/11/26 01:48:53;;;;;;;1.58;0.10;;;18.80;47.70;;;;;;5104656;28;20036;-65
2021/11/26 01:51:20;;;;;;;0.88;0.20;;;18.80;47.90;;;;;;5091172;28;20047;-64
2021/11/26 01:53:48;;;;;;;3.63;0.25;;;18.70;47.70;;;;;;5089894;28;20020;-63
2021/11/26 01:56:15;;;;;;;1.30;0.88;;;18.80;47.80;;;;;;5087823;28;20075;-63
2021/11/26 01:58:42;;;;;;;2.45;0.45;;;18.70;47.90;;;;;;5100521;28;20064;-64
2021/11/26 02:01:10;;;;;;;2.90;0.65;;;18.80;47.90;;;;;;5092111;28;20048;-64
2021/11/26 02:03:38;;;;;;;0.82;0.68;;;18.70;47.80;;;;;;5087834;28;20036;-64
2021/11/26 02:06:05;;;;;;;3.53;1.05;;;18.70;47.80;;;;;;5094326;28;20131;-62
2021/11/26 02:08:32;;;;;;;0.93;0.10;;;18.70;47.70;;;;;;5097473;28;20134;-62
2021/11/26 02:10:59;;;;;;;3.85;0.20;;;18.70;47.70;;;;;;5088621;28;20051;-62
2021/11/26 02:13:27;;;;;;;2.00;0.22;;;18.70;47.70;;;;;;5088362;28;20040;-62
2021/11/26 02:15:54;;;;;;;3.20;0.30;;;18.70;48.30;;;;;;5099237;28;20125;-62
2021/11/26 02:18:23;;;;;;;5.30;0.22;;;18.70;47.80;;;;;;5091291;28;20127;-61
2021/11/26 02:20:52;;;;;;;7.70;1.08;;;18.70;48.10;;;;;;5084023;28;20135;-61
2021/11/26 02:23:19;;;;;;;4.82;0.60;;;18.70;48.30;;;;;;5087949;28;20859;-62
2021/11/26 02:25:47;;;;;;;5.65;0.40;;;18.70;48.40;;;;;;5089617;28;20052;-61
2021/11/26 02:28:17;;;;;;;3.60;0.20;;;18.70;48.50;;;;;;5087612;28;20487;-65
2021/11/26 02:30:44;;;;;;;6.90;0.93;;;18.70;48.50;;;;;;5088258;28;20300;-64
2021/11/26 02:33:14;;;;;;;9.32;0.22;;;18.70;48.60;;;;;;5082824;28;20662;-65
2021/11/26 02:35:42;;;;;;;1.85;0.95;;;18.70;48.60;;;;;;5071809;28;20036;-65
2021/11/26 02:38:12;;;;;;;5.25;0.10;;;18.70;48.50;;;;;;5070719;28;20528;-65
2021/11/26 02:40:41;;;;;;;3.00;0.47;;;18.70;48.40;;;;;;5087040;28;20499;-65
2021/11/26 02:43:09;;;;;;;2.08;0.15;;;18.70;48.30;;;;;;5088095;28;20036;-65
2021/11/26 02:45:38;;;;;;;0.55;0.20;;;18.70;48.30;;;;;;5087611;28;20083;-65
2021/11/26 02:48:06;;;;;;;3.75;0.25;;;18.70;48.20;;;;;;5086398;28;20036;-65
2021/11/26 02:50:33;;;;;;;3.60;0.50;;;18.60;48.10;;;;;;5086185;28;20036;-64
2021/11/26 02:53:01;;;;;;;2.47;0.32;;;18.60;48.10;;;;;;5087009;28;20542;-64
2021/11/26 02:55:32;;;;;;;3.58;0.50;;;18.60;48.10;;;;;;5086078;28;20047;-61
2021/11/26 02:58:00;;;;;;;0.45;0.10;;;18.60;48.10;;;;;;5087866;28;20036;-63
2021/11/26 03:00:29;;;;;;;3.58;0.40;;;18.60;48.00;;;;;;5085532;28;20036;-63
2021/11/26 03:02:58;;;;;;;4.97;0.30;;;18.60;48.10;;;;;;5083768;28;20046;-62
2021/11/26 03:05:25;;;;;;;1.52;0.40;;;18.60;48.10;;;;;;5087126;28;20554;-64
2021/11/26 03:07:52;;;;;;;0.73;0.10;;;18.60;48.00;;;;;;5067945;28;20526;-61
2021/11/26 03:10:22;;;;;;;1.52;0.40;;;18.60;48.10;;;;;;5086389;28;20556;-67
2021/11/26 03:12:53;;;;;;;3.55;0.20;;;18.60;48.10;;;;;;5088663;28;20040;-67
2021/11/26 03:15:22;;;;;;;3.85;0.20;;;18.60;48.10;;;;;;5068902;28;20108;-67
2021/11/26 03:17:50;;;;;;;3.78;0.20;;;18.60;48.10;;;;;;5084301;28;20071;-67
2021/11/26 03:20:17;;;;;;;3.83;0.77;;;18.60;48.10;;;;;;5068433;28;20032;-67
2021/11/26 03:22:45;;;;;;;4.15;0.20;;;18.60;48.10;;;;;;5088289;28;20075;-68
2021/11/26 03:25:12;;;;;;;2.17;0.25;;;18.60;48.10;;;;;;5068435;28;20120;-65
2021/11/26 03:27:40;;;;;;;2.40;0.10;;;18.60;48.10;;;;;;5086757;28;20044;-66
2021/11/26 03:30:10;;;;;;;2.08;0.10;;;18.60;48.10;;;;;;5085912;28;20064;-66
2021/11/26 03:32:38;;;;;;;2.70;0.20;;;18.60;48.00;;;;;;5085960;28;20039;-65
2021/11/26 03:35:06;;;;;;;0.93;0.10;;;18.60;47.90;;;;;;5068723;28;20055;-67
2021/11/26 03:37:33;;;;;;;5.57;0.50;;;18.60;48.00;;;;;;5066435;28;20113;-65
2021/11/26 03:40:01;;;;;;;1.95;0.20;;;18.50;48.00;;;;;;5070679;28;20032;-65
2021/11/26 03:42:28;;;;;;;4.30;0.17;;;18.50;47.90;;;;;;5087458;28;20048;-65
2021/11/26 03:44:55;;;;;;;4.75;0.20;;;18.50;47.90;;;;;;5084149;28;20040;-65
2021/11/26 03:47:24;;;;;;;2.67;0.20;;;18.50;47.90;;;;;;5066845;28;20044;-66
2021/11/26 03:49:51;;;;;;;0.32;0.20;;;18.60;47.90;;;;;;5085035;28;20054;-65
2021/11/26 03:52:18;;;;;;;1.05;0.20;;;18.50;47.90;;;;;;5084948;28;20052;-65
2021/11/26 03:54:45;;;;;;;0.38;0.10;;;18.50;47.90;;;;;;5088719;28;20050;-65
2021/11/26 03:57:12;;;;;;;2.35;0.25;;;18.50;47.90;;;;;;5085667;28;20457;-65
2021/11/26 03:59:39;;;;;;;1.48;0.47;;;18.50;48.00;;;;;;5085224;28;20082;-65
2021/11/26 04:02:08;;;;;;;1.27;0.52;;;18.50;48.00;;;;;;5080574;28;20169;-65
2021/11/26 04:04:36;;;;;;;8.93;0.10;;;18.50;48.30;;;;;;5049308;28;20060;-63
2021/11/26 04:07:03;;;;;;;1.73;0.10;;;18.50;48.60;;;;;;5085631;28;20109;-64
2021/11/26 04:09:31;;;;;;;3.72;0.40;;;18.50;48.70;;;;;;5085021;28;20124;-64
2021/11/26 04:11:58;;;;;;;1.75;0.10;;;18.50;48.80;;;;;;5085255;28;20036;-63
2021/11/26 04:14:25;;;;;;;1.50;0.10;;;18.40;48.70;;;;;;5084996;28;20068;-64
2021/11/26 04:16:52;;;;;;;1.60;0.10;;;18.40;48.70;;;;;;5085883;28;20442;-64
2021/11/26 04:19:19;;;;;;;0.88;0.20;;;18.50;48.80;;;;;;5067986;28;20236;-64
2021/11/26 04:21:48;;;;;;;6.28;0.20;;;18.40;48.80;;;;;;5086257;28;20454;-64
2021/11/26 04:24:15;;;;;;;3.80;0.63;;;18.40;48.90;;;;;;5086662;28;20042;-64
2021/11/26 04:26:42;;;;;;;0.85;0.32;;;18.40;48.90;;;;;;5067883;28;20055;-66
2021/11/26 04:29:09;;;;;;;2.17;0.57;;;18.50;48.90;;;;;;5084381;28;20036;-65
2021/11/26 04:31:36;;;;;;;1.77;0.30;;;18.50;48.90;;;;;;5084520;28;20044;-65
2021/11/26 04:34:03;;;;;;;3.17;0.10;;;18.40;48.90;;;;;;5086792;28;20042;-65
2021/11/26 04:36:30;;;;;;;0.68;0.22;;;18.40;48.90;;;;;;5086612;28;20044;-65
2021/11/26 04:38:58;;;;;;;1.45;0.30;;;18.40;48.90;;;;;;5084092;28;20086;-64
2021/11/26 04:41:25;;;;;;;3.17;0.40;;;18.40;48.90;;;;;;5083889;28;20036;-66
2021/11/26 04:43:53;;;;;;;0.85;0.10;;;18.40;49.20;;;;;;5087276;28;20067;-66
2021/11/26 04:46:20;;;;;;;4.13;0.35;;;18.40;48.90;;;;;;5095723;28;20089;-65
2021/11/26 04:48:48;;;;;;;0.73;0.35;;;18.40;48.90;;;;;;5092902;28;20137;-65
2021/11/26 04:51:15;;;;;;;2.17;0.20;;;18.40;48.90;;;;;;5088082;28;20040;-64
2021/11/26 04:53:43;;;;;;;0.32;0.20;;;18.40;48.90;;;;;;5090815;28;20032;-65
2021/11/26 04:56:11;;;;;;;1.70;0.20;;;18.40;48.80;;;;;;5097053;28;20479;-64
2021/11/26 04:58:38;;;;;;;2.20;0.30;;;18.40;48.70;;;;;;5081953;28;20036;-65
2021/11/26 05:01:06;;;;;;;6.15;0.20;;;18.40;48.70;;;;;;5087862;28;20040;-66
2021/11/26 05:03:34;;;;;;;4.38;0.52;;;18.40;48.70;;;;;;5098585;28;20063;-67
2021/11/26 05:06:01;;;;;;;1.80;0.30;;;18.40;48.60;;;;;;5092011;28;20029;-66
2021/11/26 05:08:29;;;;;;;3.63;0.15;;;18.40;48.70;;;;;;5086006;28;20776;-64
2021/11/26 05:10:56;;;;;;;1.35;0.65;;;18.40;48.60;;;;;;5084054;28;20070;-66
2021/11/26 05:13:28;;;;;;;2.55;0.40;;;18.40;48.60;;;;;;5099431;28;20050;-66
2021/11/26 05:15:56;;;;;;;1.10;0.43;;;18.30;48.50;;;;;;5087000;28;20052;-66
2021/11/26 05:18:24;;;;;;;2.25;0.35;;;18.40;48.50;;;;;;5083065;28;20032;-67
2021/11/26 05:20:52;;;;;;;1.35;0.20;;;18.30;48.40;;;;;;5092908;28;20043;-64
2021/11/26 05:23:19;;;;;;;5.70;1.05;;;18.40;48.40;;;;;;5099225;28;20112;-63
2021/11/26 05:25:47;;;;;;;2.95;0.25;;;18.30;48.40;;;;;;5087121;28;20064;-63
2021/11/26 05:28:14;;;;;;;2.97;0.65;;;18.30;48.40;;;;;;5088194;28;20170;-64
2021/11/26 05:30:44;;;;;;;1.38;0.20;;;18.30;48.30;;;;;;5108964;27;20056;-65
2021/11/26 05:33:11;;;;;;;1.00;0.38;;;18.30;48.40;;;;;;5085894;28;20117;-64
2021/11/26 05:35:38;;;;;;;1.92;0.22;;;18.30;48.30;;;;;;5087616;28;20105;-64
2021/11/26 05:38:06;;;;;;;3.58;0.30;;;18.30;48.30;;;;;;5087393;28;20116;-65
2021/11/26 05:40:33;;;;;;;0.55;0.10;;;18.30;48.30;;;;;;5101572;28;20424;-63
2021/11/26 05:43:00;;;;;;;2.40;0.20;;;18.30;48.30;;;;;;5094950;28;20129;-63
2021/11/26 05:45:27;;;;;;;4.85;0.40;;;18.30;48.30;;;;;;5090038;28;20040;-66
2021/11/26 05:47:57;;;;;;;0.57;0.10;;;18.30;48.30;;;;;;5092813;28;20591;-64
2021/11/26 05:50:24;;;;;;;1.60;0.38;;;18.30;48.30;;;;;;5082518;28;20055;-64
2021/11/26 05:52:52;;;;;;;1.48;0.40;;;18.30;48.30;;;;;;5087724;28;20037;-63
2021/11/26 05:55:21;;;;;;;1.70;0.30;;;18.30;48.30;;;;;;5089141;28;20046;-63
2021/11/26 05:57:49;;;;;;;2.45;0.30;;;18.20;48.20;;;;;;5088866;28;20062;-64
2021/11/26 06:00:17;;;;;;;1.15;0.17;;;18.30;48.20;;;;;;5090732;28;20592;-63
2021/11/26 06:02:45;;;;;;;2.78;0.30;;;18.30;48.30;;;;;;5095603;28;20131;-63
2021/11/26 06:05:14;;;;;;;2.47;0.10;;;18.30;48.40;;;;;;5097170;28;20044;-65
2021/11/26 06:07:41;;;;;;;3.80;0.20;;;18.30;48.50;;;;;;5077883;28;20436;-65
2021/11/26 06:10:11;;;;;;;4.32;0.90;;;18.20;48.40;;;;;;5083995;28;20382;-65
2021/11/26 06:12:39;;;;;;;1.17;0.40;;;18.20;48.40;;;;;;5088334;28;20036;-64
2021/11/26 06:15:08;;;;;;;1.02;0.20;;;18.20;48.40;;;;;;5091535;28;20123;-64
2021/11/26 06:17:35;;;;;;;2.42;0.13;;;18.20;48.40;;;;;;5090225;28;20106;-64
2021/11/26 06:20:03;;;;;;;1.52;0.20;;;18.20;48.50;;;;;;5086731;28;20040;-65
2021/11/26 06:22:31;;;;;;;3.83;0.45;;;18.20;48.50;;;;;;5085343;28;20051;-63
2021/11/26 06:24:59;;;;;;;3.40;0.13;;;18.20;48.50;;;;;;5103123;28;20040;-64
2021/11/26 06:27:26;;;;;;;3.60;0.57;;;18.20;48.50;;;;;;5086698;28;20371;-63
2021/11/26 06:29:54;;;;;;;0.30;0.20;;;18.20;48.50;;;;;;5079191;28;20119;-64
2021/11/26 06:32:23;;;;;;;3.95;0.35;;;18.20;48.50;;;;;;5086746;28;20040;-63
2021/11/26 06:34:51;;;;;;;2.72;0.47;;;18.20;48.50;;;;;;5099554;28;20044;-64
2021/11/26 06:37:18;;;;;;;5.80;0.40;;;18.20;48.40;;;;;;5089013;28;20097;-64
2021/11/26 06:39:46;;;;;;;7.32;1.45;;;18.20;48.40;;;;;;5088041;28;20054;-64
2021/11/26 06:42:13;;;;;;;2.28;0.10;;;18.20;48.40;;;;;;5093411;28;20160;-64
2021/11/26 06:44:40;;;;;;;1.98;0.20;;;18.20;48.40;;;;;;5095047;28;20051;-63
2021/11/26 06:47:08;;;;;;;3.08;0.47;;;18.20;48.40;;;;;;5086252;28;20573;-63
2021/11/26 06:49:35;;;;;;;1.88;0.20;;;18.20;48.40;;;;;;5085575;28;20113;-64
2021/11/26 06:52:03;;;;;;;1.58;0.65;;;18.20;48.50;;;;;;5102798;28;20040;-64
2021/11/26 06:54:30;;;;;;;0.95;0.20;;;18.20;48.50;;;;;;5088385;28;20587;-65
2021/11/26 06:56:58;;;;;;;2.67;0.30;;;18.20;48.50;;;;;;5088085;28;20051;-64
2021/11/26 06:59:25;;;;;;;1.40;0.40;;;18.20;48.70;;;;;;5086927;28;20071;-64
2021/11/26 07:01:53;;;;;;;0.75;0.17;;;18.20;48.90;;;;;;5083280;28;20055;-64
2021/11/26 07:04:20;;;;;;;1.95;0.15;;;18.20;49.00;;;;;;5086275;28;20063;-64
2021/11/26 07:06:47;;;;;;;2.40;0.63;;;18.20;49.00;;;;;;5087527;28;20075;-64
2021/11/26 07:09:15;;;;;;;0.82;0.40;;;18.20;48.90;;;;;;5087560;28;20067;-66
2021/11/26 07:11:42;;;;;;;4.10;0.43;;;18.20;48.80;;;;;;5087740;28;20044;-65
2021/11/26 07:14:11;;;;;;;5.03;0.47;;;18.20;48.80;;;;;;5096429;28;20067;-65
2021/11/26 07:16:38;;;;;;;0.90;0.10;;;18.20;48.80;;;;;;5080483;28;20046;-65
2021/11/26 07:19:05;;;;;;;0.82;0.10;;;18.20;48.90;;;;;;5069956;28;20385;-64
2021/11/26 07:21:33;;;;;;;2.47;0.20;;;18.20;48.90;;;;;;5085665;28;20048;-64
2021/11/26 07:24:01;;;;;;;0.82;0.28;;;18.20;49.00;;;;;;5089758;28;20082;-64
2021/11/26 07:26:29;;;;;;;1.25;0.43;;;18.20;49.50;;;;;;5086643;28;20052;-64
2021/11/26 07:28:56;;;;;;;4.80;0.20;;;18.20;48.90;;;;;;5085616;28;20051;-63
2021/11/26 07:31:24;;;;;;;1.17;0.15;;;18.20;49.00;;;;;;5085255;28;20133;-63
2021/11/26 07:33:51;;;;;;;1.88;0.17;;;18.20;49.00;;;;;;5091641;28;20052;-63
2021/11/26 07:36:19;;;;;;;6.85;0.40;;;18.20;48.90;;;;;;5083028;28;20048;-64
2021/11/26 07:38:46;;;;;;;2.15;0.55;;;18.20;48.90;;;;;;5069993;28;20040;-65
2021/11/26 07:41:15;;;;;;;1.85;0.32;;;18.20;48.80;;;;;;5089595;28;20126;-63
2021/11/26 07:43:42;;;;;;;3.35;0.40;;;18.20;48.80;;;;;;5084174;28;20506;-62
2021/11/26 07:46:09;;;;;;;0.95;0.10;;;18.20;49.00;;;;;;5096163;28;20054;-61
2021/11/26 07:48:38;;;;;;;2.53;0.10;;;18.20;49.00;;;;;;5101938;27;20056;-63
2021/11/26 07:51:05;;;;;;;5.43;1.60;;;18.20;48.90;;;;;;5088970;28;20038;-63
2021/11/26 07:53:32;;;;;;;2.05;0.40;;;18.20;48.90;;;;;;5086319;28;20116;-64
2021/11/26 07:56:00;;;;;;;4.25;0.32;;;18.20;48.90;;;;;;5098142;28;20036;-63
2021/11/26 07:58:27;;;;;;;1.48;0.50;;;18.20;48.80;;;;;;5071573;28;20052;-64
2021/11/26 08:00:54;;;;;;;2.85;0.75;;;18.20;48.90;;;;;;5091225;28;20040;-64
2021/11/26 08:03:22;;;;;;;0.82;0.20;;;18.20;48.80;;;;;;5092605;28;20047;-63
2021/11/26 08:06:01;;;;;;;0.90;0.28;;;18.20;48.80;;;;;;5092214;28;20039;-65
2021/11/26 08:08:28;;;;;;;0.75;0.20;;;18.20;48.70;;;;;;5089042;28;20052;-66
2021/11/26 08:10:56;;;;;;;1.55;0.10;;;18.20;48.60;;;;;;5085587;28;20120;-63
2021/11/26 08:13:23;;;;;;;0.85;0.43;;;18.20;48.60;;;;;;5084186;28;20590;-63
2021/11/26 08:15:51;;;;;;;1.00;0.20;;;18.20;48.60;;;;;;5089561;28;20035;-64
2021/11/26 08:18:18;;;;;;;1.65;0.75;;;18.20;48.50;;;;;;5077572;28;20127;-63
2021/11/26 08:20:45;;;;;;;0.45;0.10;;;18.20;48.50;;;;;;5087088;28;20035;-63
2021/11/26 08:23:14;;;;;;;2.50;0.20;;;18.20;48.50;;;;;;5097395;28;20085;-64
2021/11/26 08:25:42;;;;;;;1.10;0.10;;;18.20;48.40;;;;;;5084854;28;20052;-64
2021/11/26 08:28:09;;;;;;;1.98;0.10;;;18.20;48.40;;;;;;5116193;27;20864;-65
2021/11/26 08:30:37;;;;;;;2.58;0.75;;;18.20;48.40;;;;;;5097014;28;20512;-64
2021/11/26 08:33:04;;;;;;;1.83;0.38;;;18.20;48.30;;;;;;5089550;28;20560;-65
2021/11/26 08:35:31;;;;;;;4.70;0.30;;;18.20;48.30;;;;;;5091508;28;20039;-65
2021/11/26 08:37:58;;;;;;;2.67;0.95;;;18.20;48.80;;;;;;5082073;28;21085;-65
2021/11/26 08:40:27;;;;;;;0.85;0.10;;;18.20;48.10;;;;;;5085091;28;20558;-69
2021/11/26 08:42:54;;;;;;;0.70;0.10;;;18.20;48.00;;;;;;5089448;28;20546;-66
2021/11/26 08:45:22;;;;;;;1.70;0.22;;;18.20;48.00;;;;;;5095516;28;20075;-64
2021/11/26 08:47:50;;;;;;;1.08;0.50;;;18.20;48.00;;;;;;5082233;28;20113;-64
2021/11/26 08:50:19;;;;;;;0.90;0.75;;;18.20;48.10;;;;;;5086235;28;20043;-65
2021/11/26 08:52:47;;;;;;;2.22;0.20;;;18.20;48.00;;;;;;5085000;28;20130;-65
2021/11/26 08:55:17;;;;;;;5.75;0.10;;;18.20;48.60;;;;;;5103487;28;20040;-65
2021/11/26 08:57:52;;;;;;;2.50;0.60;;;18.20;48.10;;;;;;5090191;28;20159;-65
2021/11/26 09:00:24;;;;;;;0.70;0.10;;;18.20;48.00;;;;;;5083838;28;20131;-64
2021/11/26 09:02:51;;;;;;;3.80;0.32;;;18.20;48.00;;;;;;5083684;28;20044;-64
2021/11/26 09:05:18;;;;;;;0.68;0.10;;;18.20;48.00;;;;;;5082975;28;20050;-65
2021/11/26 09:07:47;;;;;;;0.50;0.32;;;18.20;47.90;;;;;;5068376;28;20044;-65
2021/11/26 09:10:15;;;;;;;1.00;0.43;;;18.20;47.90;;;;;;5084735;28;20128;-65
2021/11/26 09:12:43;;;;;;;1.88;0.30;;;18.20;47.90;;;;;;5097692;28;20044;-66
2021/11/26 09:15:13;;;;;;;8.40;0.10;;;18.20;47.80;;;;;;5088757;28;20423;-66
2021/11/26 09:17:41;;;;;;;2.03;0.10;;;18.20;47.80;;;;;;5085977;28;20032;-66
2021/11/26 09:20:09;;;;;;;1.50;0.10;;;18.20;47.90;;;;;;5083568;28;20474;-66
2021/11/26 09:22:37;;;;;;;2.60;0.47;;;18.20;47.90;;;;;;5063326;28;20032;-66
2021/11/26 09:25:06;;;;;;;1.17;0.13;;;18.20;47.80;;;;;;5086076;28;20097;-67
2021/11/26 09:27:33;;;;;;;2.05;0.35;;;18.20;47.90;;;;;;5086575;28;20127;-67
2021/11/26 09:30:00;;;;;;;1.65;0.17;;;18.20;47.80;;;;;;5090434;28;20123;-67
2021/11/26 09:32:29;;;;;;;3.15;0.20;;;18.30;47.90;;;;;;5083008;28;20114;-67
2021/11/26 09:34:56;;;;;;;1.55;0.40;;;18.20;48.00;;;;;;5084536;28;20074;-67
2021/11/26 09:37:24;;;;;;;1.67;0.98;;;18.30;48.00;;;;;;5093859;28;20040;-67
2021/11/26 09:39:53;;;;;;;0.57;0.20;;;18.30;47.90;;;;;;5099595;28;20043;-67
2021/11/26 09:42:20;;;;;;;2.97;0.28;;;18.30;47.90;;;;;;5087385;28;20039;-67
2021/11/26 09:44:49;;;;;;;0.60;0.20;;;18.30;47.80;;;;;;5090671;28;20036;-66
2021/11/26 09:47:16;;;;;;;0.75;0.30;;;18.30;47.70;;;;;;5079173;28;20047;-66
2021/11/26 09:49:45;;;;;;;0.73;0.13;;;18.40;47.80;;;;;;5075463;28;20074;-68
2021/11/26 09:52:13;;;;;;;0.65;0.20;;;18.40;47.70;;;;;;5081326;28;20459;-67
2021/11/26 09:54:41;;;;;;;1.30;0.10;;;18.40;47.70;;;;;;5084716;28;20089;-65
2021/11/26 09:57:09;;;;;;;2.60;0.88;;;18.40;47.60;;;;;;5087192;28;20047;-66
2021/11/26 09:59:39;;;;;;;0.65;0.20;;;18.40;47.50;;;;;;5093355;28;20128;-66
2021/11/26 10:02:11;;;;;;;1.98;0.10;;;18.40;47.40;;;;;;5095182;28;20040;-66
2021/11/26 10:04:39;;;;;;;0.50;0.10;;;18.40;47.30;;;;;;5077623;28;20473;-67
2021/11/26 10:07:08;;;;;;;1.88;0.28;;;18.40;47.20;;;;;;5105075;28;20047;-67
2021/11/26 10:09:37;;;;;;;0.70;0.10;;;18.40;47.00;;;;;;5090432;28;20056;-66
2021/11/26 10:12:08;;;;;;;1.10;0.77;;;18.40;47.00;;;;;;5092290;28;20032;-68
2021/11/26 10:14:37;;;;;;;0.38;0.10;;;18.40;47.00;;;;;;5089894;28;20044;-68
2021/11/26 10:17:09;;;;;;;1.10;0.30;;;18.50;47.10;;;;;;5094487;28;20041;-71
2021/11/26 10:19:38;;;;;;;2.22;0.10;;;18.50;47.20;;;;;;5084215;28;20052;-73
2021/11/26 10:22:20;;;;;;;2.65;0.20;;;18.50;47.10;;;;;;5089050;28;20040;-74
2021/11/26 10:24:59;;;;;;;1.00;0.20;;;18.50;47.20;;;;;;5101241;28;20435;-74
2021/11/26 10:27:35;;;;;;;1.33;0.20;;;18.50;47.30;;;;;;5088344;28;20094;-71
2021/11/26 10:30:10;;;;;;;1.55;0.10;;;18.50;47.40;;;;;;5088328;28;20040;-70
2021/11/26 10:32:37;;;;;;;2.80;0.30;;;18.50;47.40;;;;;;5088871;28;20042;-73
2021/11/26 10:35:04;;;;;;;3.20;0.80;;;18.50;47.40;;;;;;5099835;28;20135;-69
2021/11/26 10:37:33;;;;;;;4.38;0.40;;;18.50;47.60;;;;;;5086938;28;20537;-70
2021/11/26 10:40:01;;;;;;;2.28;0.10;;;18.50;47.60;;;;;;5097209;28;20508;-72
2021/11/26 10:42:31;;;;;;;2.63;0.20;;;18.50;47.70;;;;;;5096371;28;20052;-71
2021/11/26 10:45:03;;;;;;;2.47;0.20;;;18.50;47.70;;;;;;5092356;28;20042;-69
2021/11/26 10:47:45;;;;;;;1.85;0.30;;;18.50;47.80;;;;;;5095308;28;20584;-70
2021/11/26 10:50:32;;;;;;;3.03;0.30;;;18.50;47.90;;;;;;5069175;28;20067;-69
2021/11/26 10:58:51;;;;;;;2.33;0.13;;;18.60;47.90;;;;;;4986136;28;20081;-68
2021/11/26 11:01:20;;;;;;;0.50;0.40;;;18.50;47.90;;;;;;4987459;28;20054;-70
2021/11/26 11:03:49;;;;;;;0.77;0.10;;;18.50;48.00;;;;;;4990159;28;20047;-68
2021/11/26 11:06:18;;;;;;;0.88;0.15;;;18.50;47.90;;;;;;4999601;28;20072;-69
2021/11/26 11:08:48;;;;;;;1.80;0.20;;;18.60;47.90;;;;;;4990254;28;20761;-68
2021/11/26 11:11:15;;;;;;;3.45;0.57;;;18.60;47.90;;;;;;4989495;28;20053;-69
2021/11/26 11:13:42;;;;;;;1.55;0.10;;;18.60;47.90;;;;;;5004147;28;20054;-69
2021/11/26 11:16:11;;;;;;;1.38;0.63;;;18.60;47.80;;;;;;4999657;28;20479;-69
2021/11/26 11:18:39;;;;;;;1.13;0.10;;;18.60;47.80;;;;;;4990705;28;20503;-68
2021/11/26 11:21:08;;;;;;;3.03;0.10;;;18.60;47.80;;;;;;4992213;28;20128;-69
2021/11/26 11:23:35;;;;;;;0.40;0.13;;;18.60;48.30;;;;;;5013475;28;20099;-70
2021/11/26 11:26:05;;;;;;;1.10;0.10;;;18.60;47.70;;;;;;4990714;28;20057;-69
2021/11/26 11:28:33;;;;;;;1.77;0.30;;;18.60;47.60;;;;;;4984257;28;20451;-70
2021/11/26 11:31:01;;;;;;;1.52;0.22;;;18.60;47.60;;;;;;4999634;28;20050;-71
2021/11/26 11:33:30;;;;;;;1.98;0.30;;;18.70;47.60;;;;;;5080785;28;20119;-69
2021/11/26 11:35:59;;;;;;;0.52;0.17;;;18.70;47.50;;;;;;5092702;28;20042;-68
2021/11/26 11:38:27;;;;;;;2.40;0.20;;;18.70;47.40;;;;;;5094939;28;20040;-69
2021/11/26 11:41:00;;;;;;;0.68;0.10;;;18.70;47.40;;;;;;5088161;28;20044;-70
2021/11/26 11:43:29;;;;;;;3.85;0.30;;;18.80;47.50;;;;;;5087363;28;20043;-69
2021/11/26 11:45:59;;;;;;;2.60;0.10;;;18.80;47.50;;;;;;5093401;28;20040;-68
2021/11/26 11:48:29;;;;;;;1.40;0.25;;;18.80;47.50;;;;;;5087731;28;20059;-67
2021/11/26 11:50:57;;;;;;;1.75;0.20;;;18.80;47.50;;;;;;5100896;28;20567;-68
2021/11/26 11:53:32;;;;;;;1.02;0.52;;;18.80;47.50;;;;;;5078430;28;20098;-69
2021/11/26 11:56:12;;;;;;;1.48;0.10;;;18.80;47.50;;;;;;5079919;28;20127;-67
2021/11/26 11:58:50;;;;;;;1.48;0.13;;;18.80;47.50;;;;;;5092078;28;20040;-68
2021/11/26 12:01:23;;;;;;;2.40;0.30;;;18.90;47.50;;;;;;5087952;28;20050;-67
2021/11/26 12:03:52;;;;;;;2.17;0.65;;;18.80;47.40;;;;;;5088482;28;20048;-65
2021/11/26 12:06:19;;;;;;;2.28;0.50;;;18.90;47.30;;;;;;5088359;28;20039;-67
2021/11/26 12:08:48;;;;;;;0.75;0.10;;;18.90;47.30;;;;;;5092112;28;20071;-69
2021/11/26 12:11:28;;;;;;;1.88;0.13;;;18.90;47.20;;;;;;5076306;28;20574;-68
2021/11/26 12:14:06;;;;;;;0.98;0.10;;;18.90;47.20;;;;;;5076192;28;20044;-66
2021/11/26 12:16:45;;;;;;;2.15;0.30;;;18.90;47.10;;;;;;5085178;28;20040;-74
2021/11/26 12:19:25;;;;;;;3.17;0.20;;;18.90;47.20;;;;;;5100686;28;20165;-75
2021/11/26 12:21:57;;;;;;;2.28;0.60;;;18.90;47.30;;;;;;5091033;28;20028;-73
2021/11/26 12:24:33;;;;;;;0.85;0.20;;;18.90;47.40;;;;;;5084156;28;20068;-75
2021/11/26 12:27:01;;;;;;;1.33;0.35;;;18.90;47.40;;;;;;5083741;28;20128;-73
2021/11/26 12:29:37;;;;;;;0.32;0.10;;;18.90;47.40;;;;;;5084046;28;20040;-76
2021/11/26 12:32:09;;;;;;;1.20;0.10;;;18.90;47.40;;;;;;5080894;28;20115;-74
2021/11/26 12:34:41;;;;;;;1.15;0.10;;;18.90;47.40;;;;;;5086737;28;20188;-74
2021/11/26 12:37:18;;;;;;;2.65;0.10;;;18.90;47.50;;;;;;5090394;28;20114;-74
2021/11/26 12:39:46;;;;;;;1.55;0.30;;;18.90;47.50;;;;;;5090692;28;20062;-76
2021/11/26 12:42:14;;;;;;;2.63;1.73;;;18.80;47.40;;;;;;5083463;28;20040;-71
2021/11/26 12:44:43;;;;;;;0.88;0.20;;;18.90;47.50;;;;;;5086409;28;20035;-72
2021/11/26 12:47:14;;;;;;;1.42;0.10;;;18.90;47.60;;;;;;5086479;28;20462;-72
2021/11/26 12:52:26;;;;;;;1.58;0.35;;;18.90;47.70;;;;;;5063871;28;20086;-73
2021/11/26 12:54:55;;;;;;;2.10;0.55;;;18.90;47.50;;;;;;5096879;28;20780;-68
2021/11/26 12:57:25;;;;;;;2.05;0.10;;;18.90;47.50;;;;;;5083734;28;20117;-68
2021/11/26 12:59:56;;;;;;;1.52;0.30;;;18.80;47.40;;;;;;5078054;28;20097;-73
2021/11/26 13:02:26;;;;;;;2.35;0.00;;;18.80;47.40;;;;;;5082672;28;20597;-69